createdAt,value
2023-04-08T00:00:49.762Z,12.40
2023-04-08T00:03:17.319Z,14.43
2023-04-08T00:05:44.616Z,12.90
2023-04-08T00:08:11.578Z,11.20
2023-04-08T00:10:38.625Z,11.90
2023-04-08T00:13:05.839Z,12.13
2023-04-08T00:15:32.905Z,13.20
2023-04-08T00:17:59.975Z,13.43
2023-04-08T00:20:27.188Z,13.05
2023-04-08T00:22:54.341Z,13.68
2023-04-08T00:25:23.407Z,13.45
2023-04-08T00:27:52.116Z,12.90
2023-04-08T00:30:19.515Z,12.82
2023-04-08T00:32:46.922Z,12.82
2023-04-08T00:35:14.503Z,12.90
2023-04-08T00:37:41.673Z,13.15
2023-04-08T00:40:09.188Z,13.23
2023-04-08T00:42:36.751Z,13.13
2023-04-08T00:45:04.095Z,12.18
2023-04-08T00:47:31.594Z,11.48
2023-04-08T00:49:58.910Z,13.07
2023-04-08T00:52:26.320Z,14.05
2023-04-08T00:54:53.405Z,13.43
2023-04-08T00:57:20.974Z,14.82
2023-04-08T00:59:48.079Z,13.35
2023-04-08T01:02:34.429Z,13.38
2023-04-08T01:05:09.544Z,12.52
2023-04-08T01:07:47.113Z,12.85
2023-04-08T01:10:22.291Z,12.77
2023-04-08T01:12:55.943Z,13.02
2023-04-08T01:15:26.486Z,13.38
2023-04-08T01:17:56.087Z,12.32
2023-04-08T01:20:25.316Z,12.65
2023-04-08T01:23:01.947Z,13.30
2023-04-08T01:25:37.293Z,12.57
2023-04-08T01:28:07.416Z,11.80
2023-04-08T01:30:37.656Z,12.63
2023-04-08T01:33:06.476Z,11.57
2023-04-08T01:35:34.129Z,10.85
2023-04-08T01:38:03.195Z,11.45
2023-04-08T01:40:30.900Z,11.57
2023-04-08T01:43:00.910Z,12.50
2023-04-08T01:45:29.139Z,11.48
2023-04-08T01:47:59.967Z,12.90
2023-04-08T01:50:29.179Z,11.75
2023-04-08T01:52:57.297Z,12.75
2023-04-08T01:55:25.394Z,12.07
2023-04-08T01:57:53.577Z,12.18
2023-04-08T02:00:26.542Z,11.98
2023-04-08T02:05:22.175Z,12.52
2023-04-08T02:07:49.943Z,13.50
2023-04-08T02:10:16.988Z,13.82
2023-04-08T02:12:44.857Z,12.77
2023-04-08T02:15:13.545Z,14.43
2023-04-08T02:17:47.422Z,13.00
2023-04-08T02:20:34.978Z,13.65
2023-04-08T02:23:08.455Z,13.63
2023-04-08T02:25:39.099Z,12.82
2023-04-08T02:28:10.804Z,13.40
2023-04-08T02:30:47.404Z,14.15
2023-04-08T02:33:15.554Z,14.45
2023-04-08T02:35:45.337Z,14.70
2023-04-08T02:38:12.870Z,13.88
2023-04-08T02:40:39.963Z,12.65
2023-04-08T02:43:07.327Z,13.77
2023-04-08T02:45:42.572Z,13.60
2023-04-08T02:48:10.300Z,12.30
2023-04-08T02:50:37.657Z,12.95
2023-04-08T02:53:04.801Z,14.20
2023-04-08T02:55:33.600Z,14.05
2023-04-08T02:58:00.826Z,13.43
2023-04-08T03:00:28.138Z,13.93
2023-04-08T03:02:55.470Z,15.18
2023-04-08T03:05:22.675Z,14.52
2023-04-08T03:07:49.739Z,13.20
2023-04-08T03:10:16.958Z,13.52
2023-04-08T03:12:44.176Z,13.98
2023-04-08T03:15:11.276Z,13.30
2023-04-08T03:17:38.331Z,13.88
2023-04-08T03:20:06.226Z,14.98
2023-04-08T03:22:33.974Z,14.65
2023-04-08T03:25:01.184Z,15.02
2023-04-08T03:27:28.323Z,14.23
2023-04-08T03:29:55.464Z,13.63
2023-04-08T03:32:22.564Z,14.80
2023-04-08T03:34:51.396Z,14.32
2023-04-08T03:37:19.263Z,14.02
2023-04-08T03:39:46.607Z,13.07
2023-04-08T03:42:13.739Z,13.18
2023-04-08T03:44:40.932Z,12.77
2023-04-08T03:47:08.010Z,15.00
2023-04-08T03:49:35.097Z,12.63
2023-04-08T03:52:02.155Z,12.32
2023-04-08T03:54:29.384Z,13.73
2023-04-08T03:56:56.532Z,12.93
2023-04-08T03:59:23.666Z,12.48
2023-04-08T04:01:51.577Z,12.75
2023-04-08T04:04:19.261Z,13.02
2023-04-08T04:06:46.527Z,12.63
2023-04-08T04:09:15.299Z,14.35
2023-04-08T04:11:42.471Z,14.68
2023-04-08T04:14:09.501Z,13.35
2023-04-08T04:16:36.547Z,14.27
2023-04-08T04:19:03.647Z,13.95
2023-04-08T04:21:30.729Z,12.82
2023-04-08T04:23:57.756Z,12.65
2023-04-08T04:26:24.792Z,13.55
2023-04-08T04:28:52.067Z,12.43
2023-04-08T04:31:24.007Z,11.25
2023-04-08T04:33:51.020Z,12.00
2023-04-08T04:36:18.327Z,12.50
2023-04-08T04:38:47.696Z,11.35
2023-04-08T04:41:16.370Z,11.18
2023-04-08T04:43:43.334Z,11.10
2023-04-08T04:46:10.932Z,10.93
2023-04-08T04:48:38.295Z,11.45
2023-04-08T04:51:05.778Z,9.98
2023-04-08T04:53:32.796Z,9.85
2023-04-08T04:56:02.134Z,8.27
2023-04-08T04:58:31.028Z,9.77
2023-04-08T05:00:58.233Z,11.30
2023-04-08T05:03:25.487Z,10.50
2023-04-08T05:05:53.729Z,9.27
2023-04-08T05:08:21.700Z,9.13
2023-04-08T05:10:50.918Z,9.52
2023-04-08T05:13:18.938Z,10.32
2023-04-08T05:15:46.519Z,8.65
2023-04-08T05:18:13.997Z,10.25
2023-04-08T05:20:41.001Z,9.13
2023-04-08T05:23:08.855Z,9.32
2023-04-08T05:25:36.309Z,8.95
2023-04-08T05:28:03.736Z,9.52
2023-04-08T05:30:31.092Z,8.35
2023-04-08T05:33:00.363Z,9.18
2023-04-08T05:35:28.448Z,8.25
2023-04-08T05:37:55.858Z,8.48
2023-04-08T05:40:23.046Z,9.73
2023-04-08T05:42:50.113Z,7.78
2023-04-08T05:45:17.350Z,8.60
2023-04-08T05:47:44.445Z,8.98
2023-04-08T05:50:11.746Z,9.15
2023-04-08T05:52:45.904Z,7.93
2023-04-08T05:55:14.200Z,7.93
2023-04-08T05:57:41.836Z,7.60
2023-04-08T06:00:11.109Z,7.97
2023-04-08T06:02:39.018Z,7.38
2023-04-08T06:05:06.830Z,7.32
2023-04-08T06:07:34.444Z,7.53
2023-04-08T06:10:01.925Z,7.20
2023-04-08T06:12:29.152Z,5.40
2023-04-08T06:14:56.666Z,5.50
2023-04-08T06:17:23.935Z,5.80
2023-04-08T06:19:51.075Z,6.93
2023-04-08T06:22:18.221Z,6.45
2023-04-08T06:24:47.143Z,5.40
2023-04-08T06:27:14.282Z,3.75
2023-04-08T06:29:42.978Z,6.03
2023-04-08T06:32:10.921Z,5.03
2023-04-08T06:34:38.429Z,5.38
2023-04-08T06:37:06.469Z,4.72
2023-04-08T06:39:34.210Z,4.78
2023-04-08T06:42:01.722Z,5.90
2023-04-08T06:44:47.482Z,6.40
2023-04-08T06:47:14.574Z,5.28
2023-04-08T06:49:41.988Z,5.63
2023-04-08T06:52:09.137Z,5.40
2023-04-08T06:54:36.248Z,6.03
2023-04-08T06:57:04.345Z,5.88
2023-04-08T06:59:31.475Z,5.35
2023-04-08T07:01:58.776Z,3.83
2023-04-08T07:04:26.842Z,4.45
2023-04-08T07:06:53.809Z,5.00
2023-04-08T07:09:20.921Z,3.50
2023-04-08T07:11:48.444Z,4.40
2023-04-08T07:14:15.681Z,5.13
2023-04-08T07:16:42.896Z,4.55
2023-04-08T07:19:10.902Z,5.43
2023-04-08T07:21:38.109Z,4.45
2023-04-08T07:24:05.502Z,5.90
2023-04-08T07:26:32.779Z,4.65
2023-04-08T07:28:59.830Z,5.15
2023-04-08T07:31:27.329Z,5.68
2023-04-08T07:33:54.540Z,5.50
2023-04-08T07:36:21.656Z,5.35
2023-04-08T07:38:49.093Z,5.22
2023-04-08T07:41:16.414Z,4.70
2023-04-08T07:43:43.605Z,4.55
2023-04-08T07:46:10.891Z,4.65
2023-04-08T07:48:38.743Z,5.53
2023-04-08T07:51:08.888Z,6.53
2023-04-08T07:53:38.098Z,5.78
2023-04-08T07:56:13.041Z,5.25
2023-04-08T07:58:41.044Z,5.63
2023-04-08T08:01:22.426Z,6.30
2023-04-08T08:03:51.273Z,6.07
2023-04-08T08:06:19.234Z,7.35
2023-04-08T08:08:46.340Z,6.45
2023-04-08T08:11:13.655Z,7.10
2023-04-08T08:13:41.955Z,6.82
2023-04-08T08:16:11.564Z,8.82
2023-04-08T08:18:40.485Z,17.65
2023-04-08T08:21:08.876Z,12.57
2023-04-08T08:23:36.177Z,11.70
2023-04-08T08:26:06.451Z,12.05
2023-04-08T08:28:33.975Z,13.80
2023-04-08T08:31:01.186Z,11.93
2023-04-08T08:33:28.294Z,10.98
2023-04-08T08:35:56.179Z,10.65
2023-04-08T08:38:23.324Z,8.02
2023-04-08T08:40:59.213Z,7.90
2023-04-08T08:43:27.528Z,7.35
2023-04-08T08:45:55.061Z,9.50
2023-04-08T08:48:22.872Z,7.93
2023-04-08T08:50:49.973Z,7.90
2023-04-08T08:53:17.155Z,9.55
2023-04-08T08:56:13.580Z,10.13
2023-04-08T08:58:31.505Z,9.30
2023-04-08T09:00:58.607Z,9.15
2023-04-08T09:03:30.638Z,9.68
2023-04-08T09:06:00.800Z,11.65
2023-04-08T09:08:31.395Z,17.73
2023-04-08T09:11:12.570Z,12.77
2023-04-08T09:13:40.115Z,12.18
2023-04-08T09:16:10.397Z,10.95
2023-04-08T09:18:38.815Z,11.90
2023-04-08T09:21:07.346Z,13.82
2023-04-08T09:23:48.280Z,14.75
2023-04-08T09:26:22.304Z,8.65
2023-04-08T09:29:25.204Z,6.05
2023-04-08T09:31:58.545Z,10.63
2023-04-08T09:34:27.559Z,7.82
2023-04-08T09:36:55.986Z,9.60
2023-04-08T09:39:24.053Z,7.72
2023-04-08T09:41:52.481Z,11.18
2023-04-08T09:44:21.936Z,12.50
2023-04-08T09:47:15.591Z,21.50
2023-04-08T09:49:55.676Z,13.93
2023-04-08T09:52:33.557Z,10.38
2023-04-08T09:55:05.571Z,9.85
2023-04-08T09:57:51.316Z,2.72
2023-04-08T10:00:19.497Z,8.30
2023-04-08T10:03:01.156Z,7.40
2023-04-08T10:05:29.516Z,7.32
2023-04-08T10:07:57.501Z,8.35
2023-04-08T10:10:25.653Z,6.38
2023-04-08T10:12:53.254Z,6.30
2023-04-08T10:15:30.072Z,8.55
2023-04-08T10:18:20.699Z,7.05
2023-04-08T10:20:49.429Z,9.18
2023-04-08T10:23:18.644Z,14.25
2023-04-08T10:25:49.651Z,13.88
2023-04-08T10:28:19.271Z,12.57
2023-04-08T10:30:51.098Z,9.75
2023-04-08T10:33:40.669Z,11.07
2023-04-08T10:36:11.408Z,10.45
2023-04-08T10:38:44.302Z,10.55
2023-04-08T10:41:14.250Z,8.93
2023-04-08T10:43:41.647Z,11.48
2023-04-08T10:46:12.237Z,10.20
2023-04-08T10:48:39.437Z,13.60
2023-04-08T10:51:06.639Z,69.63
2023-04-08T10:53:36.068Z,19.23
2023-04-08T10:56:15.468Z,20.00
2023-04-08T10:58:55.165Z,12.45
2023-04-08T11:01:22.777Z,10.85
2023-04-08T11:03:50.737Z,8.60
2023-04-08T11:06:18.362Z,8.32
2023-04-08T11:08:46.176Z,6.72
2023-04-08T11:11:13.344Z,9.75
2023-04-08T11:13:51.197Z,7.93
2023-04-08T11:16:21.010Z,7.75
2023-04-08T11:18:48.421Z,11.10
2023-04-08T11:21:16.806Z,9.93
2023-04-08T11:23:43.988Z,7.68
2023-04-08T11:26:11.595Z,6.68
2023-04-08T11:28:39.200Z,5.97
2023-04-08T11:31:08.970Z,10.20
2023-04-08T11:33:36.480Z,9.95
2023-04-08T11:36:04.848Z,11.25
2023-04-08T11:38:32.141Z,16.45
2023-04-08T11:41:00.627Z,13.23
2023-04-08T11:43:28.758Z,14.13
2023-04-08T11:45:57.107Z,17.35
2023-04-08T11:48:24.268Z,13.15
2023-04-08T11:51:04.742Z,12.50
2023-04-08T11:53:31.818Z,9.57
2023-04-08T11:55:58.893Z,10.65
2023-04-08T11:58:26.079Z,35.50
2023-04-08T12:00:53.150Z,22.08
2023-04-08T12:03:20.498Z,12.75
2023-04-08T12:05:48.468Z,9.02
2023-04-08T12:08:15.510Z,11.57
2023-04-08T12:10:42.895Z,9.32
2023-04-08T12:13:10.400Z,7.32
2023-04-08T12:15:37.879Z,10.18
2023-04-08T12:18:06.037Z,9.80
2023-04-08T12:20:33.653Z,12.60
2023-04-08T12:23:00.844Z,10.35
2023-04-08T12:25:27.951Z,12.77
2023-04-08T12:27:55.053Z,13.68
2023-04-08T12:30:24.922Z,10.15
2023-04-08T12:32:53.466Z,16.00
2023-04-08T12:35:20.954Z,9.90
2023-04-08T12:37:48.041Z,8.73
2023-04-08T12:40:15.571Z,14.85
2023-04-08T12:42:42.811Z,11.70
2023-04-08T12:45:10.068Z,21.85
2023-04-08T12:47:37.319Z,8.55
2023-04-08T12:50:04.887Z,12.55
2023-04-08T12:52:32.422Z,8.30
2023-04-08T12:54:59.770Z,8.07
2023-04-08T12:57:28.609Z,9.02
2023-04-08T12:59:56.355Z,9.60
2023-04-08T13:02:25.646Z,11.38
2023-04-08T13:04:53.839Z,10.80
2023-04-08T13:07:21.092Z,10.02
2023-04-08T13:09:48.527Z,11.15
2023-04-08T13:12:16.374Z,13.48
2023-04-08T13:14:43.472Z,12.20
2023-04-08T13:17:10.846Z,12.45
2023-04-08T13:19:37.913Z,21.88
2023-04-08T13:22:05.017Z,47.35
2023-04-08T13:24:32.059Z,16.55
2023-04-08T13:26:59.350Z,10.65
2023-04-08T13:29:26.449Z,11.38
2023-04-08T13:31:53.695Z,10.65
2023-04-08T13:34:21.214Z,10.10
2023-04-08T13:36:48.356Z,10.10
2023-04-08T13:39:15.541Z,5.88
2023-04-08T13:41:42.701Z,8.02
2023-04-08T13:44:10.585Z,12.68
2023-04-08T13:46:37.834Z,7.43
2023-04-08T13:49:04.843Z,7.85
2023-04-08T13:51:32.761Z,11.32
2023-04-08T13:53:59.852Z,11.15
2023-04-08T13:56:27.039Z,8.07
2023-04-08T13:58:57.573Z,9.30
2023-04-08T14:01:25.180Z,6.70
2023-04-08T14:03:52.888Z,14.00
2023-04-08T14:06:20.240Z,12.52
2023-04-08T14:08:47.507Z,6.90
2023-04-08T14:11:14.589Z,13.45
2023-04-08T14:13:41.659Z,8.90
2023-04-08T14:16:09.166Z,10.38
2023-04-08T14:18:36.512Z,5.13
2023-04-08T14:21:04.232Z,5.55
2023-04-08T14:23:31.292Z,14.02
2023-04-08T14:25:58.375Z,9.40
2023-04-08T14:28:25.450Z,5.40
2023-04-08T14:30:52.736Z,5.65
2023-04-08T14:33:20.052Z,14.45
2023-04-08T14:35:50.776Z,7.28
2023-04-08T14:38:17.976Z,8.63
2023-04-08T14:40:45.203Z,9.85
2023-04-08T14:43:13.785Z,6.90
2023-04-08T14:45:41.321Z,6.43
2023-04-08T14:48:08.751Z,5.68
2023-04-08T14:50:36.111Z,7.97
2023-04-08T14:53:03.621Z,17.95
2023-04-08T14:55:32.382Z,35.60
2023-04-08T14:58:02.566Z,16.20
2023-04-08T15:00:29.611Z,12.75
2023-04-08T15:02:56.861Z,21.77
2023-04-08T15:05:24.044Z,19.23
2023-04-08T15:07:51.166Z,6.00
2023-04-08T15:10:18.760Z,8.18
2023-04-08T15:12:46.865Z,6.75
2023-04-08T15:15:13.960Z,5.68
2023-04-08T15:17:41.188Z,6.43
2023-04-08T15:20:09.118Z,6.18
2023-04-08T15:22:36.294Z,5.85
2023-04-08T15:25:05.184Z,6.13
2023-04-08T15:27:32.769Z,6.93
2023-04-08T15:29:59.838Z,7.50
2023-04-08T15:32:30.534Z,5.80
2023-04-08T15:34:57.913Z,6.10
2023-04-08T15:37:25.108Z,5.50
2023-04-08T15:39:55.544Z,6.68
2023-04-08T15:42:23.034Z,5.40
2023-04-08T15:44:50.352Z,6.03
2023-04-08T15:47:17.506Z,5.75
2023-04-08T15:49:44.963Z,6.40
2023-04-08T15:52:12.017Z,6.50
2023-04-08T15:54:39.078Z,6.50
2023-04-08T15:57:06.756Z,6.45
2023-04-08T15:59:35.352Z,9.50
2023-04-08T16:02:02.425Z,27.90
2023-04-08T16:04:29.834Z,21.73
2023-04-08T16:06:57.080Z,12.00
2023-04-08T16:09:26.858Z,25.80
2023-04-08T16:11:54.036Z,15.82
2023-04-08T16:14:21.420Z,13.25
2023-04-08T16:16:49.334Z,12.02
2023-04-08T16:19:16.697Z,9.70
2023-04-08T16:21:44.156Z,18.77
2023-04-08T16:24:11.665Z,14.20
2023-04-08T16:26:38.727Z,21.00
2023-04-08T16:29:06.202Z,12.90
2023-04-08T16:31:33.362Z,14.60
2023-04-08T16:34:00.573Z,10.82
2023-04-08T16:36:27.808Z,11.30
2023-04-08T16:38:54.928Z,10.18
2023-04-08T16:41:21.954Z,9.35
2023-04-08T16:43:49.443Z,8.55
2023-04-08T16:46:17.635Z,11.00
2023-04-08T16:48:45.158Z,10.88
2023-04-08T16:51:12.253Z,9.23
2023-04-08T16:53:39.701Z,12.30
2023-04-08T16:56:15.861Z,9.10
2023-04-08T16:58:43.750Z,8.10
2023-04-08T17:01:14.202Z,7.30
2023-04-08T17:03:41.643Z,7.30
2023-04-08T17:06:13.830Z,7.82
2023-04-08T17:08:44.339Z,8.18
2023-04-08T17:11:13.705Z,8.15
2023-04-08T17:13:42.658Z,9.52
2023-04-08T17:16:14.887Z,8.25
2023-04-08T17:18:43.288Z,10.40
2023-04-08T17:21:10.828Z,15.00
2023-04-08T17:23:38.339Z,10.05
2023-04-08T17:26:09.761Z,9.93
2023-04-08T17:28:37.073Z,10.07
2023-04-08T17:31:04.305Z,8.68
2023-04-08T17:33:31.661Z,7.75
2023-04-08T17:35:58.745Z,10.48
2023-04-08T17:38:26.003Z,10.43
2023-04-08T17:40:53.095Z,10.82
2023-04-08T17:43:20.120Z,7.68
2023-04-08T17:45:47.356Z,7.88
2023-04-08T17:48:14.643Z,8.18
2023-04-08T17:50:41.676Z,9.23
2023-04-08T17:53:08.904Z,9.95
2023-04-08T17:55:36.073Z,10.73
2023-04-08T17:58:04.417Z,11.13
2023-04-08T18:00:31.579Z,13.05
2023-04-08T18:02:58.757Z,14.77
2023-04-08T18:05:27.485Z,13.77
2023-04-08T18:07:54.587Z,15.10
2023-04-08T18:10:24.613Z,13.55
2023-04-08T18:12:57.835Z,14.20
2023-04-08T18:15:30.996Z,15.73
2023-04-08T18:17:57.985Z,16.33
2023-04-08T18:20:25.071Z,14.63
2023-04-08T18:22:52.094Z,13.07
2023-04-08T18:25:22.372Z,12.15
2023-04-08T18:27:50.069Z,11.85
2023-04-08T18:30:17.167Z,13.05
2023-04-08T18:32:44.209Z,12.25
2023-04-08T18:35:11.438Z,11.50
2023-04-08T18:37:38.429Z,12.63
2023-04-08T18:40:07.494Z,13.27
2023-04-08T18:42:34.537Z,14.32
2023-04-08T18:45:01.572Z,15.68
2023-04-08T18:47:28.731Z,15.90
2023-04-08T18:49:56.902Z,15.68
2023-04-08T18:52:23.983Z,16.38
2023-04-08T18:54:51.002Z,16.27
2023-04-08T18:57:18.111Z,16.95
2023-04-08T18:59:48.421Z,16.60
2023-04-08T19:02:16.516Z,17.38
2023-04-08T19:04:43.638Z,16.33
2023-04-08T19:07:11.948Z,16.98
2023-04-08T19:09:38.989Z,17.05
2023-04-08T19:12:06.004Z,18.52
2023-04-08T19:14:33.065Z,18.58
2023-04-08T19:17:00.272Z,20.70
2023-04-08T19:19:27.636Z,19.98
2023-04-08T19:21:55.219Z,20.27
2023-04-08T19:24:22.275Z,17.90
2023-04-08T19:26:50.846Z,18.00
2023-04-08T19:29:19.556Z,16.58
2023-04-08T19:31:46.792Z,15.88
2023-04-08T19:34:13.944Z,16.90
2023-04-08T19:36:41.180Z,16.83
2023-04-08T19:39:08.189Z,16.88
2023-04-08T19:41:35.454Z,13.75
2023-04-08T19:44:02.547Z,14.00
2023-04-08T19:46:29.668Z,15.57
2023-04-08T19:48:59.008Z,14.90
2023-04-08T19:51:27.481Z,14.85
2023-04-08T19:53:54.951Z,15.18
2023-04-08T19:56:22.796Z,14.60
2023-04-08T19:58:50.266Z,16.13
2023-04-08T20:01:17.695Z,19.30
2023-04-08T20:03:50.663Z,19.73
2023-04-08T20:06:18.906Z,19.73
2023-04-08T20:08:46.469Z,19.52
2023-04-08T20:11:13.642Z,21.90
2023-04-08T20:13:40.879Z,20.80
2023-04-08T20:16:08.013Z,21.35
2023-04-08T20:18:35.209Z,27.05
2023-04-08T20:21:02.246Z,29.92
2023-04-08T20:23:29.359Z,26.75
2023-04-08T20:25:56.837Z,32.08
2023-04-08T20:28:24.539Z,32.75
2023-04-08T20:30:52.562Z,26.00
2023-04-08T20:33:19.600Z,24.65
2023-04-08T20:35:47.722Z,21.90
2023-04-08T20:38:14.805Z,23.60
2023-04-08T20:40:45.573Z,21.85
2023-04-08T20:43:12.672Z,21.13
2023-04-08T20:45:39.693Z,23.17
2023-04-08T20:48:07.557Z,22.25
2023-04-08T20:50:35.047Z,28.90
2023-04-08T20:53:02.137Z,24.73
2023-04-08T20:55:29.269Z,25.63
2023-04-08T20:57:56.377Z,21.92
2023-04-08T21:00:23.538Z,19.55
2023-04-08T21:02:51.112Z,19.40
2023-04-08T21:05:18.324Z,18.90
2023-04-08T21:07:45.413Z,19.48
2023-04-08T21:10:14.229Z,18.05
2023-04-08T21:12:41.297Z,18.23
2023-04-08T21:15:08.936Z,18.40
2023-04-08T21:17:36.082Z,17.33
2023-04-08T21:20:04.469Z,17.20
2023-04-08T21:22:32.432Z,18.02
2023-04-08T21:24:59.599Z,18.33
2023-04-08T21:27:28.355Z,17.23
2023-04-08T21:29:55.420Z,17.50
2023-04-08T21:32:22.646Z,20.50
2023-04-08T21:34:56.191Z,19.20
2023-04-08T21:37:23.601Z,19.25
2023-04-08T21:39:51.559Z,20.60
2023-04-08T21:42:22.780Z,19.27
2023-04-08T21:44:50.077Z,19.17
2023-04-08T21:47:17.785Z,20.45
2023-04-08T21:49:45.472Z,17.98
2023-04-08T21:52:12.724Z,19.05
2023-04-08T21:54:39.715Z,19.35
2023-04-08T21:57:06.709Z,18.40
2023-04-08T21:59:33.740Z,18.92
2023-04-08T22:02:01.060Z,17.92
2023-04-08T22:04:28.344Z,18.90
2023-04-08T22:06:55.390Z,18.75
2023-04-08T22:09:22.506Z,18.50
2023-04-08T22:11:49.590Z,18.85
2023-04-08T22:14:17.831Z,17.95
2023-04-08T22:16:45.302Z,20.67
2023-04-08T22:19:12.511Z,19.58
2023-04-08T22:21:39.581Z,19.02
2023-04-08T22:24:06.661Z,18.50
2023-04-08T22:26:33.762Z,18.35
2023-04-08T22:29:01.271Z,18.77
2023-04-08T22:31:28.354Z,18.63
2023-04-08T22:33:55.581Z,18.67
2023-04-08T22:36:22.746Z,19.15
2023-04-08T22:38:50.291Z,18.90
2023-04-08T22:41:22.251Z,18.75
2023-04-08T22:43:50.323Z,18.20
2023-04-08T22:46:18.716Z,18.17
2023-04-08T22:48:46.435Z,18.63
2023-04-08T22:51:13.749Z,16.52
2023-04-08T22:53:41.179Z,17.40
2023-04-08T22:56:08.276Z,16.70
2023-04-08T22:58:35.843Z,16.02
2023-04-08T23:01:10.035Z,16.98
2023-04-08T23:03:37.363Z,17.42
2023-04-08T23:06:04.600Z,17.80
2023-04-08T23:08:31.896Z,17.20
2023-04-08T23:10:59.043Z,16.75
2023-04-08T23:13:28.118Z,16.52
2023-04-08T23:15:55.373Z,17.55
2023-04-08T23:18:22.936Z,17.58
2023-04-08T23:20:57.511Z,18.85
2023-04-08T23:23:25.467Z,18.55
2023-04-08T23:25:55.575Z,18.13
2023-04-08T23:28:23.369Z,17.98
2023-04-08T23:30:50.511Z,18.63
2023-04-08T23:33:17.580Z,17.58
2023-04-08T23:35:45.067Z,17.27
2023-04-08T23:38:12.294Z,18.35
2023-04-08T23:40:39.599Z,17.55
2023-04-08T23:43:06.694Z,18.60
2023-04-08T23:45:33.697Z,16.83
2023-04-08T23:48:01.005Z,17.00
2023-04-08T23:50:28.134Z,16.20
2023-04-08T23:52:55.324Z,15.82
2023-04-08T23:55:22.315Z,15.48
2023-04-08T23:57:50.878Z,15.60
